Time;durP1;ratioP1;P1;durP2;ratioP2;P2;SDS_P1;SDS_P2;PMS_P1;PMS_P2;Temp;Humidity;BMP_temperature;BMP_pressure;BME280_temperature;BME280_humidity;BME280_pressure;Samples;Min_cycle;Max_cycle;Signal;HPM_P1;HPM_P2
2021/06/10 00:05:35;;;;;;;16.00;10.18;;;;;;;14.93;71.63;99262.56;4111116;85;21586;-79
2021/06/10 00:11:37;;;;;;;17.02;9.48;;;;;;;14.41;72.17;99273.03;4113719;85;22415;-77
2021/06/10 00:17:39;;;;;;;11.88;9.33;;;;;;;14.02;73.37;99266.67;4114002;85;21069;-77
2021/06/10 00:23:40;;;;;;;13.32;8.60;;;;;;;13.90;74.02;99267.85;4112476;85;21566;-77
2021/06/10 00:29:42;;;;;;;14.03;10.35;;;;;;;14.16;74.65;99266.11;4116529;85;21716;-76
2021/06/10 00:35:43;;;;;;;15.23;10.08;;;;;;;14.39;73.95;99266.36;4115702;85;21031;-77
2021/06/10 00:41:44;;;;;;;14.00;9.43;;;;;;;14.26;74.08;99259.66;4119213;85;20995;-77
2021/06/10 00:47:49;;;;;;;12.40;8.43;;;;;;;14.26;74.37;99256.32;4105952;84;21082;-77
2021/06/10 00:53:51;;;;;;;12.82;9.43;;;;;;;14.25;74.22;99253.34;4101689;85;21146;-81
2021/06/10 00:59:52;;;;;;;11.85;9.03;;;;;;;14.02;74.16;99250.95;4101826;85;21625;-76
2021/06/10 01:05:58;;;;;;;13.45;8.55;;;;;;;13.76;74.73;99254.64;4099147;84;21078;-78
2021/06/10 01:12:14;;;;;;;15.50;8.57;;;;;;;14.00;74.96;99253.30;4070743;86;21562;-77
2021/06/10 01:18:18;;;;;;;11.22;8.43;;;;;;;14.10;74.74;99248.41;4074774;86;21050;-77
2021/06/10 01:24:44;;;;;;;9.63;7.97;;;;;;;14.15;74.67;99245.86;4051313;86;21034;-77
2021/06/10 01:30:56;;;;;;;14.40;9.13;;;;;;;14.11;74.66;99240.34;4081287;86;21898;-76
2021/06/10 01:36:59;;;;;;;11.97;7.80;;;;;;;14.08;74.54;99237.00;4076986;86;21464;-77
2021/06/10 01:43:02;;;;;;;13.90;9.03;;;;;;;13.81;74.41;99235.77;3988166;86;21132;-76
2021/06/10 01:49:06;;;;;;;13.22;9.45;;;;;;;13.75;74.61;99237.34;4090313;85;21038;-76
2021/06/10 01:55:13;;;;;;;13.05;8.48;;;;;;;13.53;74.35;99241.20;3982762;88;21073;-77
2021/06/10 02:01:15;;;;;;;10.72;8.35;;;;;;;13.30;75.29;99237.98;3982863;88;21037;-75
2021/06/10 02:07:18;;;;;;;13.30;9.25;;;;;;;13.27;75.05;99246.22;4121097;85;21069;-77
2021/06/10 02:13:26;;;;;;;15.53;9.73;;;;;;;13.19;75.22;99243.23;4121178;85;22244;-76
2021/06/10 02:19:29;;;;;;;11.30;8.28;;;;;;;13.21;75.57;99251.89;4047666;86;21072;-77
2021/06/10 02:25:30;;;;;;;12.18;7.75;;;;;;;13.18;75.63;99249.91;4115531;85;21592;-76
2021/06/10 02:31:32;;;;;;;10.98;7.85;;;;;;;13.22;75.76;99252.88;4121572;85;21018;-79
2021/06/10 02:37:36;;;;;;;13.55;9.83;;;;;;;13.18;75.57;99257.58;4118962;85;21049;-76
2021/06/10 02:43:39;;;;;;;13.95;9.23;;;;;;;13.02;75.72;99264.54;4087670;85;21082;-78
2021/06/10 02:49:49;;;;;;;13.18;7.90;;;;;;;12.95;76.06;99265.86;4069575;86;21044;-77
2021/06/10 02:55:53;;;;;;;13.62;9.08;;;;;;;13.08;76.19;99280.29;4072780;86;21132;-76
2021/06/10 03:01:56;;;;;;;11.83;9.15;;;;;;;12.97;76.14;99268.99;4072497;86;21061;-76
2021/06/10 03:07:58;;;;;;;13.05;8.33;;;;;;;12.79;75.97;99269.48;4014803;87;21101;-76
2021/06/10 03:14:02;;;;;;;10.85;7.70;;;;;;;12.76;76.72;99276.54;4018965;87;22344;-76
2021/06/10 03:20:08;;;;;;;14.03;9.33;;;;;;;12.90;76.58;99279.38;4074991;86;21086;-76
2021/06/10 03:26:11;;;;;;;12.85;9.03;;;;;;;12.84;76.90;99280.12;4073203;86;21138;-76
2021/06/10 03:32:13;;;;;;;15.83;10.25;;;;;;;12.79;76.86;99283.22;4076364;86;21034;-76
2021/06/10 03:38:15;;;;;;;15.78;9.65;;;;;;;12.86;77.09;99287.40;4100012;85;21490;-77
2021/06/10 03:44:17;;;;;;;13.15;9.90;;;;;;;12.89;77.10;99289.38;4102338;85;21829;-76
2021/06/10 03:50:20;;;;;;;18.75;11.05;;;;;;;12.78;77.09;99292.64;4120019;85;21070;-76
2021/06/10 03:56:22;;;;;;;12.45;9.60;;;;;;;12.83;77.17;99292.26;4113641;85;21045;-76
2021/06/10 04:02:23;;;;;;;19.90;9.33;;;;;;;12.94;77.40;99286.25;4112804;85;21056;-76
2021/06/10 04:08:25;;;;;;;12.80;9.28;;;;;;;13.20;77.49;99286.05;4111168;85;21049;-76
2021/06/10 04:14:26;;;;;;;14.18;9.40;;;;;;;13.45;77.51;99282.84;4099665;84;30472;-76
2021/06/10 04:20:28;;;;;;;11.53;8.95;;;;;;;13.63;77.33;99285.05;4092913;85;21125;-76
2021/06/10 04:26:30;;;;;;;13.50;9.88;;;;;;;13.80;77.24;99291.20;4080255;84;21084;-75
2021/06/10 04:32:32;;;;;;;14.30;9.98;;;;;;;13.95;76.92;99281.20;4075100;86;21632;-76
2021/06/10 04:38:34;;;;;;;17.12;10.82;;;;;;;14.08;76.73;99282.42;4080485;86;21139;-76
2021/06/10 04:44:35;;;;;;;13.18;9.25;;;;;;;14.20;76.53;99288.15;4094125;85;21061;-76
2021/06/10 04:50:36;;;;;;;18.65;11.53;;;;;;;14.29;76.37;99286.40;4125864;84;21375;-76
2021/06/10 04:56:39;;;;;;;16.60;10.68;;;;;;;14.37;76.24;99284.66;4118912;84;21121;-76
2021/06/10 05:02:40;;;;;;;16.50;10.30;;;;;;;14.47;76.12;99283.84;4120710;84;21007;-76
2021/06/10 05:08:42;;;;;;;19.75;11.70;;;;;;;14.61;76.09;99288.59;4121616;84;21047;-76
2021/06/10 05:14:44;;;;;;;16.82;10.95;;;;;;;14.79;76.05;99284.63;4121785;84;21007;-76
2021/06/10 05:20:45;;;;;;;13.75;10.65;;;;;;;15.01;76.01;99287.55;4118816;84;21057;-76
2021/06/10 05:26:47;;;;;;;18.80;10.93;;;;;;;15.28;75.93;99292.81;4122355;84;21574;-76
2021/06/10 05:32:48;;;;;;;19.15;10.10;;;;;;;15.57;75.80;99289.36;4119119;84;21585;-76
2021/06/10 05:38:49;;;;;;;16.40;10.68;;;;;;;15.82;75.61;99288.66;4122208;84;21015;-77
2021/06/10 05:44:50;;;;;;;14.98;9.83;;;;;;;16.04;75.41;99280.44;4123474;84;21858;-76
2021/06/10 05:50:52;;;;;;;15.35;10.10;;;;;;;16.24;75.27;99277.95;4133877;84;21082;-77
2021/06/10 05:56:53;;;;;;;25.12;10.20;;;;;;;16.42;75.12;99278.59;4133393;84;21518;-76
2021/06/10 06:02:54;;;;;;;14.65;9.03;;;;;;;16.60;74.70;99277.91;4137058;84;21082;-76
2021/06/10 06:08:56;;;;;;;12.23;8.33;;;;;;;16.76;74.21;99273.98;4134423;84;22249;-76
2021/06/10 06:14:57;;;;;;;18.17;8.80;;;;;;;16.88;73.84;99276.27;4133352;84;21037;-76
2021/06/10 06:20:59;;;;;;;12.03;7.72;;;;;;;17.08;73.53;99277.23;4129819;84;21054;-77
2021/06/10 06:27:00;;;;;;;14.58;6.95;;;;;;;17.21;72.87;99279.05;4136667;84;21636;-76
2021/06/10 06:33:02;;;;;;;13.85;6.60;;;;;;;17.42;72.45;99284.95;4133425;84;21125;-76
2021/06/10 06:39:05;;;;;;;15.63;6.25;;;;;;;17.61;72.07;99284.36;4129740;84;21066;-76
2021/06/10 06:45:07;;;;;;;15.78;7.15;;;;;;;17.78;71.36;99284.72;4129901;84;21149;-77
2021/06/10 06:51:09;;;;;;;9.73;6.15;;;;;;;18.05;71.73;99288.31;4123813;84;21067;-77
2021/06/10 06:57:11;;;;;;;9.28;6.12;;;;;;;18.48;71.27;99286.48;4121496;85;21109;-77
2021/06/10 07:03:12;;;;;;;13.75;5.75;;;;;;;19.14;70.62;99288.53;4119417;84;21077;-78
2021/06/10 07:09:14;;;;;;;7.87;5.33;;;;;;;19.95;70.00;99286.30;4121224;84;21583;-78
2021/06/10 07:15:19;;;;;;;8.25;4.87;;;;;;;20.79;68.96;99284.31;4115608;84;21077;-81
2021/06/10 07:21:20;;;;;;;15.32;6.20;;;;;;;21.58;68.16;99290.92;4119915;84;21049;-78
2021/06/10 07:27:22;;;;;;;7.55;4.70;;;;;;;22.28;66.67;99290.85;4123092;84;21606;-77
2021/06/10 07:33:24;;;;;;;8.75;4.80;;;;;;;22.69;65.23;99296.30;4116557;84;21557;-79
2021/06/10 07:39:25;;;;;;;11.43;4.90;;;;;;;23.18;64.03;99291.04;4114638;84;21055;-78
2021/06/10 07:45:29;;;;;;;8.70;4.40;;;;;;;23.40;62.68;99295.31;4122861;84;21394;-78
2021/06/10 07:51:30;;;;;;;8.00;4.83;;;;;;;23.66;61.82;99289.14;4119589;84;21114;-81
2021/06/10 07:57:31;;;;;;;13.72;4.95;;;;;;;23.56;60.59;99290.30;4121522;84;20995;-78
2021/06/10 08:03:33;;;;;;;6.45;4.75;;;;;;;23.40;59.81;99293.27;4119947;84;21070;-78
2021/06/10 08:09:36;;;;;;;7.15;4.42;;;;;;;23.10;59.45;99289.12;4123014;84;21050;-78
2021/06/10 08:15:39;;;;;;;6.35;2.55;;;;;;;23.01;58.99;99293.23;4126233;84;21073;-78
2021/06/10 08:21:41;;;;;;;2.00;1.65;;;;;;;22.82;57.80;99291.48;4119129;84;21042;-79
2021/06/10 08:27:42;;;;;;;1.85;1.50;;;;;;;22.95;55.38;99291.45;4121572;84;21606;-78
2021/06/10 08:33:43;;;;;;;4.00;1.80;;;;;;;23.04;52.88;99285.34;4122211;84;21047;-82
2021/06/10 08:39:45;;;;;;;4.47;1.75;;;;;;;23.18;52.94;99289.03;4136049;84;41452;-78
2021/06/10 08:45:48;;;;;;;2.67;1.95;;;;;;;23.17;51.61;99288.88;4162311;83;21646;-78
2021/06/10 08:51:50;;;;;;;4.37;1.67;;;;;;;23.34;51.87;99292.30;4169083;83;21057;-80
2021/06/10 08:57:52;;;;;;;1.95;1.57;;;;;;;23.51;50.89;99290.12;4168713;83;21078;-78
2021/06/10 09:03:54;;;;;;;5.08;1.62;;;;;;;23.61;49.49;99284.73;4159993;83;21439;-79
2021/06/10 09:09:57;;;;;;;2.75;1.67;;;;;;;23.50;49.82;99296.92;4156825;83;21076;-78
2021/06/10 09:16:22;;;;;;;4.45;1.45;;;;;;;23.20;49.11;99296.36;4174610;83;21015;-78
2021/06/10 09:22:35;;;;;;;6.42;1.35;;;;;;;23.48;48.72;99292.39;4164751;83;21349;-79
2021/06/10 09:28:39;;;;;;;4.95;1.60;;;;;;;23.69;47.89;99296.61;4157533;83;21530;-79
2021/06/10 09:34:45;;;;;;;3.25;1.42;;;;;;;23.77;46.15;99301.31;4172684;83;21371;-79
2021/06/10 09:40:54;;;;;;;3.17;1.42;;;;;;;23.98;45.62;99300.52;4167112;83;21522;-79
2021/06/10 09:47:04;;;;;;;5.62;1.80;;;;;;;24.32;45.25;99295.57;4154115;83;21034;-79
2021/06/10 09:53:17;;;;;;;2.33;1.27;;;;;;;24.56;45.53;99296.61;4153623;84;21066;-78
2021/06/10 09:59:51;;;;;;;8.43;1.70;;;;;;;24.09;45.41;99299.50;4163017;83;21574;-79
2021/06/10 10:06:27;;;;;;;3.30;1.40;;;;;;;24.20;45.55;99297.06;4169201;84;22299;-79
2021/06/10 10:12:31;;;;;;;3.92;1.50;;;;;;;24.30;46.09;99291.08;4156780;84;21057;-79
2021/06/10 10:18:42;;;;;;;1.50;1.30;;;;;;;24.74;44.79;99282.53;4086439;85;21016;-79
2021/06/10 10:24:53;;;;;;;2.42;1.55;;;;;;;24.63;44.26;99281.55;4004053;87;21529;-79
2021/06/10 10:30:58;;;;;;;2.12;1.20;;;;;;;24.23;42.89;99275.95;4040996;86;21032;-79
2021/06/10 10:37:22;;;;;;;1.37;1.15;;;;;;;24.63;42.60;99272.51;4159933;84;21039;-79
2021/06/10 10:43:26;;;;;;;3.58;0.88;;;;;;;24.94;41.33;99266.86;4164718;84;21747;-79
2021/06/10 10:49:47;;;;;;;3.22;1.20;;;;;;;24.77;41.88;99261.39;4157809;84;21053;-79
2021/06/10 10:56:11;;;;;;;2.08;1.10;;;;;;;25.06;41.08;99258.92;4154738;84;21561;-80
2021/06/10 11:02:16;;;;;;;3.35;1.20;;;;;;;25.43;40.39;99252.73;4160629;84;21144;-79
2021/06/10 11:08:16;;;;;;;3.02;1.45;;;;;;;26.20;39.49;99258.18;4161146;84;21609;-79
2021/06/10 11:14:54;;;;;;;4.72;1.50;;;;;;;26.68;38.94;99239.56;4162498;84;21554;-79
2021/06/10 11:20:58;;;;;;;1.52;1.37;;;;;;;26.95;38.96;99240.00;4156103;84;21056;-79
2021/06/10 11:27:03;;;;;;;2.00;1.15;;;;;;;27.11;38.90;99224.11;4164070;84;21116;-79
2021/06/10 11:33:09;;;;;;;1.57;1.10;;;;;;;27.61;37.51;99223.05;4156882;84;21054;-79
2021/06/10 11:39:17;;;;;;;2.22;1.05;;;;;;;28.00;37.60;99210.45;4162040;84;21120;-80
2021/06/10 11:45:26;;;;;;;1.75;1.10;;;;;;;28.16;35.91;99204.28;4158427;84;21448;-79
2021/06/10 11:51:36;;;;;;;3.67;1.10;;;;;;;28.30;36.13;99202.71;4174552;83;21045;-81
2021/06/10 11:57:37;;;;;;;3.87;2.17;;;;;;;28.44;35.07;99184.34;4185241;83;21051;-80
2021/06/10 12:03:41;;;;;;;3.35;1.80;;;;;;;27.45;35.56;99183.51;4183676;83;21125;-80
2021/06/10 12:09:53;;;;;;;7.00;1.35;;;;;;;27.11;35.61;99179.91;4180361;83;21050;-81
2021/06/10 12:15:56;;;;;;;4.42;1.27;;;;;;;26.67;35.20;99178.27;4191666;83;21108;-80
2021/06/10 12:22:02;;;;;;;1.25;1.00;;;;;;;26.55;35.78;99168.79;4182705;83;21011;-84
2021/06/10 12:28:04;;;;;;;;;;;;;;;26.42;35.03;99169.64;4184838;83;21096;-79
2021/06/10 12:34:09;;;;;;;2.00;1.30;;;;;;;26.03;35.56;99151.16;4185574;83;20648;-77
2021/06/10 12:40:11;;;;;;;1.98;1.12;;;;;;;26.03;35.47;99141.34;4190052;83;21094;-80
2021/06/10 12:46:13;;;;;;;3.65;1.55;;;;;;;26.21;36.10;99134.86;4178427;83;21092;-80
2021/06/10 12:52:29;;;;;;;1.70;1.12;;;;;;;25.98;35.88;99137.14;4205454;83;21065;-79
2021/06/10 12:58:28;;;;;;;2.55;1.55;;;;;;;25.50;36.13;99134.69;4204952;83;21432;-81
2021/06/10 13:04:38;;;;;;;3.67;1.40;;;;;;;25.58;35.35;99121.28;4197145;83;21201;-79
2021/06/10 13:10:45;;;;;;;1.57;1.25;;;;;;;25.58;35.92;99108.66;4205542;83;21530;-80
2021/06/10 13:16:52;;;;;;;3.42;1.60;;;;;;;25.52;36.06;99064.93;4198793;83;21057;-79
2021/06/10 13:23:00;;;;;;;11.12;2.25;;;;;;;25.63;36.59;99104.44;4192328;83;21524;-80
2021/06/10 13:29:08;;;;;;;13.58;2.98;;;;;;;25.02;37.42;99117.49;4197745;83;21056;-79
2021/06/10 13:35:13;;;;;;;4.40;2.65;;;;;;;24.14;38.29;99134.69;4209701;83;20991;-80
2021/06/10 13:41:15;;;;;;;8.23;3.58;;;;;;;23.56;39.19;99138.02;4207637;83;21068;-79
2021/06/10 13:47:19;;;;;;;11.08;3.02;;;;;;;23.09;40.47;99148.56;4202699;83;22182;-78
2021/06/10 13:53:20;;;;;;;4.00;2.67;;;;;;;22.76;40.98;99148.17;4184531;83;21053;-78
2021/06/10 13:59:23;;;;;;;5.78;3.50;;;;;;;22.63;42.27;99136.27;4193545;83;21061;-79
2021/06/10 14:05:24;;;;;;;4.47;3.00;;;;;;;22.46;43.29;99136.84;4190941;83;21076;-77
2021/06/10 14:11:26;;;;;;;9.43;4.20;;;;;;;22.33;44.89;99138.28;4196667;83;21076;-78
2021/06/10 14:17:27;;;;;;;6.92;3.62;;;;;;;22.74;44.64;99128.94;4192546;83;21037;-78
2021/06/10 14:23:28;;;;;;;5.83;3.15;;;;;;;23.25;44.55;99126.05;4177318;83;21049;-79
2021/06/10 14:35:35;;;;;;;10.68;3.58;;;;;;;24.08;44.93;99118.36;4192237;83;21041;-79
2021/06/10 14:41:37;;;;;;;6.95;2.90;;;;;;;23.72;44.75;99128.00;4180750;83;21899;-78
2021/06/10 14:47:48;;;;;;;7.78;3.05;;;;;;;22.89;45.16;99136.34;4175232;83;21542;-79
2021/06/10 14:53:49;;;;;;;3.47;2.10;;;;;;;22.30;45.63;99137.03;4159160;84;21066;-78
2021/06/10 14:59:50;;;;;;;2.20;2.00;;;;;;;22.02;46.09;99131.00;4158072;84;21076;-78
2021/06/10 15:05:52;;;;;;;4.78;2.12;;;;;;;21.92;46.60;99132.12;4157516;83;21929;-78
2021/06/10 15:11:53;;;;;;;4.95;2.67;;;;;;;21.82;46.88;99117.30;4158781;84;22288;-78
2021/06/10 15:17:54;;;;;;;4.72;2.12;;;;;;;21.58;47.83;99122.39;4159756;84;21065;-78
2021/06/10 15:23:56;;;;;;;3.67;2.40;;;;;;;21.28;48.74;99122.92;4153081;84;21052;-78
2021/06/10 15:29:58;;;;;;;5.05;2.35;;;;;;;21.19;48.68;99116.47;4152372;84;21030;-78
2021/06/10 15:35:59;;;;;;;3.95;2.20;;;;;;;21.18;49.10;99110.72;4154061;84;21072;-78
2021/06/10 15:42:01;;;;;;;3.20;2.25;;;;;;;21.08;49.18;99104.88;4162072;84;21586;-78
2021/06/10 15:48:03;;;;;;;4.22;2.30;;;;;;;21.22;49.26;99105.84;4161031;83;21010;-78
2021/06/10 15:54:08;;;;;;;5.08;2.62;;;;;;;21.30;49.91;99100.99;4152217;84;21585;-77
2021/06/10 16:00:10;;;;;;;6.03;2.45;;;;;;;21.48;50.03;99099.85;4158353;84;21038;-78
2021/06/10 16:06:17;;;;;;;3.25;2.00;;;;;;;21.63;50.68;99095.38;4162688;84;21098;-77
2021/06/10 16:12:19;;;;;;;5.00;2.98;;;;;;;21.84;49.60;99094.55;4137996;81;21591;-78
2021/06/10 16:18:20;;;;;;;2.95;1.77;;;;;;;21.97;48.76;99098.11;4139919;84;21079;-78
2021/06/10 16:24:22;;;;;;;3.12;1.57;;;;;;;22.07;48.25;99092.78;4143434;84;21019;-76
2021/06/10 16:30:25;;;;;;;3.35;1.47;;;;;;;22.00;47.94;99095.82;4144410;84;21087;-77
2021/06/10 16:36:26;;;;;;;5.22;2.35;;;;;;;21.94;48.08;99092.05;4140130;84;20988;-78
2021/06/10 16:42:28;;;;;;;3.17;1.40;;;;;;;21.96;48.06;99090.36;4136179;84;21555;-78
2021/06/10 16:48:29;;;;;;;2.75;1.80;;;;;;;21.99;48.10;99078.31;4135557;84;21064;-78
2021/06/10 16:54:31;;;;;;;2.27;1.70;;;;;;;21.93;48.27;99077.92;4136256;84;22296;-78
2021/06/10 17:00:36;;;;;;;2.40;1.75;;;;;;;21.89;48.01;99072.49;4129161;84;21008;-79
2021/06/10 17:06:43;;;;;;;5.12;1.72;;;;;;;21.86;48.74;99069.21;4130328;84;21155;-78
2021/06/10 17:12:44;;;;;;;3.42;1.60;;;;;;;21.81;49.38;99076.73;4132057;84;21107;-77
2021/06/10 17:18:46;;;;;;;2.17;1.87;;;;;;;21.57;49.44;99084.64;4154564;84;21537;-77
2021/06/10 17:24:51;;;;;;;1.95;1.35;;;;;;;21.44;49.75;99088.63;4109811;84;21363;-77
2021/06/10 17:30:53;;;;;;;1.62;1.52;;;;;;;21.34;49.71;99092.54;4130630;84;21556;-78
2021/06/10 17:36:54;;;;;;;2.10;1.50;;;;;;;21.30;49.66;99090.45;4143928;84;21126;-78
2021/06/10 17:42:56;;;;;;;2.75;1.60;;;;;;;21.23;50.00;99095.66;4130141;84;21116;-77
2021/06/10 17:48:57;;;;;;;2.90;1.65;;;;;;;21.12;49.70;99096.58;4134830;83;21056;-78
2021/06/10 17:54:59;;;;;;;1.80;1.25;;;;;;;20.88;49.80;99095.27;4138457;84;21616;-78
2021/06/10 18:01:01;;;;;;;2.92;1.80;;;;;;;20.61;49.83;99097.61;4134531;84;21878;-78
2021/06/10 18:07:03;;;;;;;2.67;1.50;;;;;;;20.50;49.88;99101.92;4139917;84;21020;-77
2021/06/10 18:13:05;;;;;;;3.33;1.60;;;;;;;20.38;50.07;99106.80;4144450;84;21064;-77
2021/06/10 18:19:07;;;;;;;2.83;1.50;;;;;;;20.15;50.19;99105.02;4013756;84;10000259;-77
2021/06/10 18:25:09;;;;;;;2.35;1.45;;;;;;;20.06;50.80;99106.98;4139536;84;20985;-78
2021/06/10 18:31:11;;;;;;;2.67;1.82;;;;;;;20.04;50.86;99111.42;3991278;87;21088;-77
2021/06/10 18:37:12;;;;;;;4.22;1.80;;;;;;;19.97;51.05;99116.55;4137702;84;21550;-79
2021/06/10 18:43:14;;;;;;;3.27;1.80;;;;;;;19.88;51.22;99123.92;4136069;84;21012;-76
2021/06/10 18:49:15;;;;;;;6.42;2.45;;;;;;;19.70;51.44;99122.19;4001243;86;21084;-77
2021/06/10 18:55:19;;;;;;;3.37;2.58;;;;;;;19.51;52.59;99134.13;4177052;83;20961;-77
2021/06/10 19:01:20;;;;;;;4.97;2.52;;;;;;;19.38;52.60;99129.86;4172331;85;21011;-77
2021/06/10 19:07:21;;;;;;;11.80;5.03;;;;;;;19.24;52.81;99137.07;4184471;83;21044;-77
2021/06/10 19:13:22;;;;;;;6.72;3.42;;;;;;;19.14;53.18;99140.84;4171304;83;21019;-77
2021/06/10 19:19:24;;;;;;;9.28;4.53;;;;;;;19.17;54.28;99142.75;4177036;83;21566;-77
2021/06/10 19:25:25;;;;;;;8.70;4.90;;;;;;;19.08;54.37;99148.70;4178886;83;21043;-77
2021/06/10 19:31:29;;;;;;;8.05;4.80;;;;;;;18.92;54.64;99147.27;4161170;83;21047;-81
2021/06/10 19:37:32;;;;;;;7.30;4.60;;;;;;;18.77;55.27;99151.52;4172683;83;21058;-77
2021/06/10 19:43:33;;;;;;;8.50;4.58;;;;;;;18.61;56.38;99150.82;4172219;83;21036;-77
2021/06/10 19:49:37;;;;;;;9.98;5.00;;;;;;;18.50;56.85;99153.00;4171869;83;21029;-77
2021/06/10 19:55:39;;;;;;;9.38;4.65;;;;;;;18.44;57.56;99155.50;4134186;84;21537;-77
2021/06/10 20:01:40;;;;;;;6.90;4.65;;;;;;;18.44;57.95;99157.47;4139238;84;21132;-78
2021/06/10 20:07:41;;;;;;;7.55;5.03;;;;;;;18.41;58.57;99162.48;4139924;84;21080;-77
2021/06/10 20:13:43;;;;;;;10.93;5.15;;;;;;;18.30;58.77;99159.88;4128449;84;21024;-77
2021/06/10 20:19:44;;;;;;;12.45;5.22;;;;;;;18.27;59.59;99163.48;4142266;84;21556;-77
2021/06/10 20:25:48;;;;;;;9.50;5.60;;;;;;;18.15;59.25;99164.69;4130469;84;21024;-77
2021/06/10 20:31:49;;;;;;;9.88;5.80;;;;;;;18.02;59.19;99161.73;4129424;84;21046;-78
2021/06/10 20:37:50;;;;;;;15.25;6.95;;;;;;;17.91;59.71;99165.27;4141680;84;21077;-78
2021/06/10 20:43:53;;;;;;;15.43;5.58;;;;;;;17.83;60.10;99157.48;4139084;84;21099;-77
2021/06/10 20:49:56;;;;;;;8.98;4.87;;;;;;;17.68;60.94;99159.67;4138283;84;21590;-77
2021/06/10 20:55:57;;;;;;;9.28;5.30;;;;;;;17.53;61.75;99158.91;4136445;84;21068;-79
2021/06/10 21:01:59;;;;;;;10.48;5.33;;;;;;;17.38;62.03;99158.91;4140922;84;21074;-80
2021/06/10 21:08:00;;;;;;;7.83;4.87;;;;;;;17.28;62.37;99163.37;4134050;84;21036;-77
2021/06/10 21:14:02;;;;;;;8.05;4.62;;;;;;;17.14;62.63;99158.03;4132748;84;21098;-78
2021/06/10 21:20:09;;;;;;;12.10;4.83;;;;;;;17.04;63.12;99161.11;4133737;84;21032;-77
2021/06/10 21:26:11;;;;;;;8.10;4.67;;;;;;;16.96;63.60;99158.86;4132724;84;21100;-77
2021/06/10 21:32:13;;;;;;;9.08;4.45;;;;;;;16.81;64.13;99165.14;4130107;84;21115;-79
2021/06/10 21:38:17;;;;;;;9.68;4.70;;;;;;;16.71;64.25;99167.41;4125219;84;21110;-77
2021/06/10 21:44:19;;;;;;;7.22;4.92;;;;;;;16.60;64.53;99159.83;4114690;84;21000;-77
2021/06/10 21:50:21;;;;;;;7.87;4.50;;;;;;;16.51;64.69;99162.30;4137722;84;21077;-79
2021/06/10 21:56:23;;;;;;;8.08;5.00;;;;;;;16.40;65.11;99158.03;4167069;83;21138;-77
2021/06/10 22:02:24;;;;;;;8.00;4.78;;;;;;;16.36;65.24;99161.44;4168397;83;21091;-77
2021/06/10 22:08:26;;;;;;;8.63;5.17;;;;;;;16.23;65.66;99163.13;4157885;83;21084;-77
2021/06/10 22:14:27;;;;;;;7.65;5.20;;;;;;;16.04;66.10;99158.16;4162050;83;21069;-77
2021/06/10 22:20:30;;;;;;;9.98;5.30;;;;;;;15.80;66.25;99157.77;4162396;83;21056;-76
2021/06/10 22:26:32;;;;;;;11.00;5.08;;;;;;;15.61;66.38;99158.47;4160766;83;21055;-78
2021/06/10 22:32:35;;;;;;;8.63;6.05;;;;;;;15.49;67.13;99158.15;4166349;83;21059;-77
2021/06/10 22:38:38;;;;;;;7.25;4.60;;;;;;;15.39;67.07;99152.88;4135307;83;21410;-77
2021/06/10 22:44:45;;;;;;;7.65;5.33;;;;;;;15.21;67.67;99148.04;4133705;83;21072;-77
2021/06/10 22:50:47;;;;;;;8.13;4.80;;;;;;;15.17;67.82;99145.91;4167435;83;21719;-77
2021/06/10 22:56:49;;;;;;;9.45;5.12;;;;;;;15.03;67.99;99142.42;4143855;84;21067;-76
2021/06/10 23:02:54;;;;;;;12.58;6.50;;;;;;;14.98;68.49;99139.48;4111271;84;21556;-77
2021/06/10 23:08:55;;;;;;;11.85;5.70;;;;;;;14.81;68.65;99127.95;4129866;84;21068;-77
2021/06/10 23:14:57;;;;;;;10.43;5.80;;;;;;;14.56;69.07;99127.82;4143290;84;21016;-77
2021/06/10 23:20:59;;;;;;;10.98;6.50;;;;;;;14.41;69.22;99129.05;4134701;84;21115;-77
2021/06/10 23:27:02;;;;;;;12.58;6.50;;;;;;;14.48;69.77;99124.89;4125935;84;21142;-77
2021/06/10 23:33:05;;;;;;;9.25;5.75;;;;;;;14.58;69.90;99130.36;4129602;84;21064;-77
2021/06/10 23:39:07;;;;;;;8.80;4.90;;;;;;;14.49;69.86;99136.89;4135278;84;21123;-77
2021/06/10 23:45:10;;;;;;;12.82;7.05;;;;;;;14.36;69.98;99137.09;4125107;84;21024;-77
2021/06/10 23:51:11;;;;;;;10.15;6.58;;;;;;;14.22;70.02;99142.59;4140094;84;21093;-77
2021/06/10 23:57:12;;;;;;;11.60;6.37;;;;;;;14.02;70.15;99140.06;4138865;84;21067;-77
